Time;durP1;ratioP1;P1;durP2;ratioP2;P2;SDS_P1;SDS_P2;PMS_P1;PMS_P2;Temp;Humidity;BMP_temperature;BMP_pressure;BME280_temperature;BME280_humidity;BME280_pressure;Samples;Min_cycle;Max_cycle;Signal;HPM_P1;HPM_P2
2021/08/28 00:00:33;;;;;;;10.95;7.05;;;;;;;;;;5074765;28;20024;-70
2021/08/28 00:02:59;;;;;;;12.82;6.82;;;;;;;;;;5074444;28;20071;-71
2021/08/28 00:05:25;;;;;;;9.93;6.15;;;;;;;;;;5074225;28;20028;-71
2021/08/28 00:07:51;;;;;;;11.85;7.00;;;;;;;;;;5073931;28;20111;-72
2021/08/28 00:10:17;;;;;;;11.88;6.35;;;;;;;;;;5074368;28;20103;-72
2021/08/28 00:12:43;;;;;;;9.95;6.05;;;;;;;;;;5074541;28;20031;-72
2021/08/28 00:15:10;;;;;;;11.80;6.18;;;;;;;;;;5074422;28;20032;-72
2021/08/28 00:17:39;;;;;;;10.60;7.25;;;;;;;;;;5074018;28;20099;-71
2021/08/28 00:20:06;;;;;;;10.65;5.65;;;;;;;;;;5074321;28;20525;-72
2021/08/28 00:22:32;;;;;;;11.52;5.72;;;;;;;;;;5074380;28;20029;-71
2021/08/28 00:24:58;;;;;;;13.32;6.05;;;;;;;;;;5075090;28;20025;-71
2021/08/28 00:27:24;;;;;;;10.10;6.13;;;;;;;;;;5073766;28;20103;-71
2021/08/28 00:29:50;;;;;;;9.50;5.97;;;;;;;;;;5072327;28;20024;-71
2021/08/28 00:32:17;;;;;;;8.38;5.63;;;;;;;;;;5074882;28;20383;-70
2021/08/28 00:34:43;;;;;;;10.45;6.10;;;;;;;;;;5074847;28;20449;-71
2021/08/28 00:37:09;;;;;;;9.90;6.32;;;;;;;;;;5074324;28;20032;-72
2021/08/28 00:39:35;;;;;;;10.65;6.80;;;;;;;;;;5073741;28;20063;-72
2021/08/28 00:42:01;;;;;;;11.05;6.13;;;;;;;;;;5073514;28;20033;-72
2021/08/28 00:44:27;;;;;;;9.68;6.70;;;;;;;;;;5075176;28;20115;-71
2021/08/28 00:46:54;;;;;;;13.00;6.22;;;;;;;;;;5076442;28;20036;-72
2021/08/28 00:49:20;;;;;;;10.85;6.57;;;;;;;;;;5073644;28;20040;-71
2021/08/28 00:51:46;;;;;;;10.68;6.05;;;;;;;;;;5073268;28;20035;-71
2021/08/28 00:54:12;;;;;;;11.88;7.10;;;;;;;;;;5073295;28;20102;-71
2021/08/28 00:56:39;;;;;;;10.38;6.95;;;;;;;;;;5074507;28;20475;-71
2021/08/28 00:59:05;;;;;;;11.25;6.75;;;;;;;;;;5073511;28;20036;-71
2021/08/28 01:01:41;;;;;;;12.57;6.30;;;;;;;;;;5072118;28;20078;-70
2021/08/28 01:04:09;;;;;;;14.70;6.38;;;;;;;;;;5073639;28;20024;-70
2021/08/28 01:06:56;;;;;;;12.30;6.60;;;;;;;;;;5073937;28;20032;-72
2021/08/28 01:09:28;;;;;;;14.80;7.45;;;;;;;;;;5074075;28;20040;-69
2021/08/28 01:12:14;;;;;;;9.90;6.05;;;;;;;;;;5073683;28;20029;-70
2021/08/28 01:14:42;;;;;;;13.57;7.22;;;;;;;;;;5074006;28;20023;-72
2021/08/28 01:17:10;;;;;;;8.50;5.75;;;;;;;;;;5078209;28;20020;-70
2021/08/28 01:19:36;;;;;;;14.20;6.78;;;;;;;;;;5078933;28;20078;-70
2021/08/28 01:22:02;;;;;;;11.07;6.68;;;;;;;;;;5077731;28;20091;-70
2021/08/28 01:24:29;;;;;;;10.75;7.10;;;;;;;;;;5076704;28;20047;-72
2021/08/28 01:27:11;;;;;;;13.52;7.40;;;;;;;;;;5075550;28;20039;-73
2021/08/28 01:29:38;;;;;;;13.48;6.72;;;;;;;;;;5075795;28;20021;-72
2021/08/28 01:32:05;;;;;;;13.98;7.38;;;;;;;;;;5072516;28;20024;-72
2021/08/28 01:34:32;;;;;;;14.77;8.13;;;;;;;;;;5072861;28;20051;-71
2021/08/28 01:36:59;;;;;;;11.00;7.65;;;;;;;;;;5073133;28;20067;-69
2021/08/28 01:39:26;;;;;;;14.57;7.78;;;;;;;;;;5074885;28;20029;-71
2021/08/28 01:41:57;;;;;;;12.88;7.18;;;;;;;;;;5072744;28;20383;-71
2021/08/28 01:44:24;;;;;;;13.93;7.25;;;;;;;;;;5073734;28;20028;-71
2021/08/28 01:46:52;;;;;;;15.13;8.23;;;;;;;;;;5072584;28;20033;-72
2021/08/28 01:49:27;;;;;;;13.57;7.68;;;;;;;;;;5074569;28;20048;-72
2021/08/28 01:51:54;;;;;;;12.20;7.40;;;;;;;;;;5078150;28;20146;-72
2021/08/28 01:54:20;;;;;;;15.05;8.27;;;;;;;;;;5073139;28;20028;-71
2021/08/28 01:56:46;;;;;;;14.55;7.90;;;;;;;;;;5072706;28;20040;-72
2021/08/28 01:59:14;;;;;;;16.02;7.18;;;;;;;;;;5072817;28;20036;-70
2021/08/28 02:01:40;;;;;;;12.90;7.72;;;;;;;;;;5074364;28;20028;-71
2021/08/28 02:04:06;;;;;;;15.70;7.53;;;;;;;;;;5071424;28;20046;-71
2021/08/28 02:06:49;;;;;;;12.82;7.18;;;;;;;;;;5072446;28;20025;-70
2021/08/28 02:09:32;;;;;;;14.73;7.75;;;;;;;;;;5072535;28;20049;-71
2021/08/28 02:12:00;;;;;;;13.60;7.35;;;;;;;;;;5072999;28;20024;-71
2021/08/28 02:14:34;;;;;;;12.70;7.30;;;;;;;;;;5073701;28;20640;-71
2021/08/28 02:17:02;;;;;;;12.55;6.90;;;;;;;;;;5072243;28;20097;-70
2021/08/28 02:19:31;;;;;;;14.30;8.95;;;;;;;;;;5072283;28;20028;-70
2021/08/28 02:21:59;;;;;;;12.23;7.57;;;;;;;;;;5073836;28;20028;-71
2021/08/28 02:24:30;;;;;;;13.10;7.13;;;;;;;;;;5073849;28;20021;-72
2021/08/28 02:27:01;;;;;;;14.05;7.90;;;;;;;;;;5072980;28;20025;-71
2021/08/28 02:29:34;;;;;;;14.98;6.75;;;;;;;;;;5072343;28;20047;-71
2021/08/28 02:32:00;;;;;;;12.07;6.93;;;;;;;;;;5072528;28;20023;-71
2021/08/28 02:34:30;;;;;;;15.88;7.05;;;;;;;;;;5074578;28;20028;-71
2021/08/28 02:36:56;;;;;;;11.73;6.80;;;;;;;;;;5074213;28;20036;-70
2021/08/28 02:39:23;;;;;;;13.75;7.13;;;;;;;;;;5072577;28;20021;-71
2021/08/28 02:41:50;;;;;;;13.05;7.20;;;;;;;;;;5072226;28;20039;-71
2021/08/28 02:44:20;;;;;;;11.40;7.65;;;;;;;;;;5073308;28;20089;-72
2021/08/28 02:46:47;;;;;;;14.23;6.93;;;;;;;;;;5076341;28;20387;-70
2021/08/28 02:49:14;;;;;;;13.70;7.05;;;;;;;;;;5072102;28;20025;-71
2021/08/28 02:51:40;;;;;;;11.50;7.45;;;;;;;;;;5072010;28;20029;-71
2021/08/28 02:54:08;;;;;;;14.77;7.40;;;;;;;;;;5073585;28;20056;-72
2021/08/28 02:56:34;;;;;;;12.68;7.68;;;;;;;;;;5073476;28;20033;-72
2021/08/28 02:59:00;;;;;;;11.85;7.32;;;;;;;;;;5075743;28;20082;-70
2021/08/28 03:01:28;;;;;;;16.33;7.45;;;;;;;;;;5075610;28;20116;-70
2021/08/28 03:03:55;;;;;;;15.70;7.53;;;;;;;;;;5077017;28;20082;-71
2021/08/28 03:06:21;;;;;;;13.60;8.02;;;;;;;;;;5077002;28;20577;-73
2021/08/28 03:08:48;;;;;;;13.43;7.20;;;;;;;;;;5076945;28;20056;-72
2021/08/28 03:11:14;;;;;;;13.25;7.30;;;;;;;;;;5075258;28;20083;-71
2021/08/28 03:13:43;;;;;;;14.13;7.70;;;;;;;;;;5076826;28;20025;-71
2021/08/28 03:16:12;;;;;;;11.52;7.18;;;;;;;;;;5073804;28;20033;-71
2021/08/28 03:18:41;;;;;;;12.15;7.25;;;;;;;;;;5076354;28;20025;-71
2021/08/28 03:21:09;;;;;;;13.43;7.43;;;;;;;;;;5076927;28;20027;-72
2021/08/28 03:23:38;;;;;;;17.70;7.18;;;;;;;;;;5075166;28;20021;-71
2021/08/28 03:26:04;;;;;;;9.30;6.57;;;;;;;;;;5075098;28;20494;-70
2021/08/28 03:28:32;;;;;;;11.82;6.50;;;;;;;;;;5077239;28;20029;-72
2021/08/28 03:30:58;;;;;;;12.07;6.85;;;;;;;;;;5076088;28;20044;-72
2021/08/28 03:33:24;;;;;;;13.38;7.72;;;;;;;;;;5074280;28;20073;-72
2021/08/28 03:35:51;;;;;;;14.90;6.88;;;;;;;;;;5075022;28;20100;-71
2021/08/28 03:38:17;;;;;;;14.07;7.25;;;;;;;;;;5075626;28;20528;-72
2021/08/28 03:40:45;;;;;;;11.80;7.55;;;;;;;;;;5076817;28;20016;-71
2021/08/28 03:43:11;;;;;;;14.27;7.53;;;;;;;;;;5075563;28;20500;-70
2021/08/28 03:45:37;;;;;;;12.88;7.05;;;;;;;;;;5074509;28;20029;-71
2021/08/28 03:48:04;;;;;;;13.60;7.05;;;;;;;;;;5074468;28;20131;-71
2021/08/28 03:50:30;;;;;;;14.40;8.10;;;;;;;;;;5076128;28;20021;-70
2021/08/28 03:52:57;;;;;;;18.52;8.82;;;;;;;;;;5077186;28;20379;-70
2021/08/28 03:55:23;;;;;;;13.75;7.45;;;;;;;;;;5073992;28;20470;-70
2021/08/28 03:57:49;;;;;;;14.27;7.38;;;;;;;;;;5075735;28;20029;-73
2021/08/28 04:00:16;;;;;;;18.55;8.10;;;;;;;;;;5076659;28;20032;-72
2021/08/28 04:02:42;;;;;;;14.00;7.30;;;;;;;;;;5073945;28;20107;-71
2021/08/28 04:05:08;;;;;;;11.57;6.85;;;;;;;;;;5075758;28;20020;-70
2021/08/28 04:07:38;;;;;;;13.52;7.57;;;;;;;;;;5074399;28;20113;-71
2021/08/28 04:10:05;;;;;;;12.43;6.88;;;;;;;;;;5073734;28;20028;-72
2021/08/28 04:12:31;;;;;;;14.85;7.28;;;;;;;;;;5074578;28;20021;-70
2021/08/28 04:14:57;;;;;;;15.57;7.90;;;;;;;;;;5077093;28;20104;-70
2021/08/28 04:17:24;;;;;;;14.50;7.68;;;;;;;;;;5075153;28;20032;-72
2021/08/28 04:19:50;;;;;;;28.85;7.32;;;;;;;;;;5074641;28;20032;-72
2021/08/28 04:22:16;;;;;;;15.98;8.18;;;;;;;;;;5074414;28;20059;-70
2021/08/28 04:24:45;;;;;;;15.10;7.85;;;;;;;;;;5074535;28;20044;-71
2021/08/28 04:27:11;;;;;;;13.18;7.00;;;;;;;;;;5075585;28;20029;-71
2021/08/28 04:29:37;;;;;;;11.15;6.90;;;;;;;;;;5074179;28;20025;-73
2021/08/28 04:32:03;;;;;;;11.13;7.10;;;;;;;;;;5073610;28;20392;-73
2021/08/28 04:34:29;;;;;;;13.27;7.15;;;;;;;;;;5074186;28;20024;-72
2021/08/28 04:36:55;;;;;;;13.10;6.85;;;;;;;;;;5074652;28;20028;-73
2021/08/28 04:39:21;;;;;;;12.88;7.38;;;;;;;;;;5074219;28;20035;-72
2021/08/28 04:41:47;;;;;;;10.23;6.50;;;;;;;;;;5073454;28;20028;-71
2021/08/28 04:44:13;;;;;;;12.73;6.32;;;;;;;;;;5073647;28;20028;-73
2021/08/28 04:46:39;;;;;;;15.38;7.43;;;;;;;;;;5074389;28;20020;-71
2021/08/28 04:49:05;;;;;;;13.77;6.60;;;;;;;;;;5076413;28;20020;-72
2021/08/28 04:51:31;;;;;;;12.32;6.78;;;;;;;;;;5073391;28;20074;-71
2021/08/28 04:53:58;;;;;;;11.13;6.88;;;;;;;;;;5073206;28;20099;-71
2021/08/28 04:56:24;;;;;;;11.18;6.45;;;;;;;;;;5075335;28;20479;-72
2021/08/28 04:58:50;;;;;;;13.27;6.80;;;;;;;;;;5075250;28;20081;-72
2021/08/28 05:01:16;;;;;;;11.38;6.95;;;;;;;;;;5074611;28;20032;-71
2021/08/28 05:03:45;;;;;;;12.18;7.22;;;;;;;;;;5074126;28;20039;-71
2021/08/28 05:06:14;;;;;;;13.23;7.10;;;;;;;;;;5073524;28;20522;-71
2021/08/28 05:08:40;;;;;;;12.60;7.25;;;;;;;;;;5074193;28;20048;-72
2021/08/28 05:11:06;;;;;;;12.75;7.20;;;;;;;;;;5074901;28;20032;-70
2021/08/28 05:13:32;;;;;;;11.73;7.00;;;;;;;;;;5073523;28;20056;-71
2021/08/28 05:15:58;;;;;;;12.88;7.53;;;;;;;;;;5072884;28;20020;-70
2021/08/28 05:18:24;;;;;;;11.95;6.30;;;;;;;;;;5075208;28;20024;-70
2021/08/28 05:20:50;;;;;;;14.20;7.60;;;;;;;;;;5074026;28;20105;-71
2021/08/28 05:23:16;;;;;;;13.57;6.40;;;;;;;;;;5072829;28;20110;-71
2021/08/28 05:25:42;;;;;;;11.82;6.63;;;;;;;;;;5072785;28;20025;-71
2021/08/28 05:28:08;;;;;;;9.40;6.07;;;;;;;;;;5073365;28;20025;-71
2021/08/28 05:30:34;;;;;;;10.00;5.43;;;;;;;;;;5073379;28;20080;-72
2021/08/28 05:33:00;;;;;;;10.23;6.13;;;;;;;;;;5072952;28;20027;-71
2021/08/28 05:35:26;;;;;;;10.18;7.07;;;;;;;;;;5072722;28;20028;-72
2021/08/28 05:37:52;;;;;;;9.38;6.00;;;;;;;;;;5072962;28;20060;-72
2021/08/28 05:40:20;;;;;;;11.50;7.40;;;;;;;;;;5073385;28;20029;-72
2021/08/28 05:42:46;;;;;;;15.80;6.95;;;;;;;;;;5072813;28;20028;-71
2021/08/28 05:45:12;;;;;;;15.15;7.90;;;;;;;;;;5072725;28;20081;-70
2021/08/28 05:47:38;;;;;;;17.08;7.88;;;;;;;;;;5072690;28;20029;-71
2021/08/28 05:50:05;;;;;;;16.10;8.90;;;;;;;;;;5073060;28;20024;-72
2021/08/28 05:52:31;;;;;;;15.15;8.57;;;;;;;;;;5073797;28;20031;-70
2021/08/28 05:54:57;;;;;;;23.15;9.57;;;;;;;;;;5073580;28;20052;-70
2021/08/28 05:57:23;;;;;;;16.60;7.93;;;;;;;;;;5073054;28;20086;-71
2021/08/28 05:59:49;;;;;;;42.53;8.70;;;;;;;;;;5072666;28;20116;-71
2021/08/28 06:02:15;;;;;;;15.48;8.02;;;;;;;;;;5073080;28;20029;-70
2021/08/28 06:04:42;;;;;;;22.88;8.02;;;;;;;;;;5073788;28;20090;-72
2021/08/28 06:07:08;;;;;;;10.52;6.57;;;;;;;;;;5072407;28;20032;-71
2021/08/28 06:09:34;;;;;;;9.63;5.68;;;;;;;;;;5072296;28;20051;-71
2021/08/28 06:12:00;;;;;;;11.45;6.35;;;;;;;;;;5072411;28;20021;-70
2021/08/28 06:14:27;;;;;;;11.13;6.22;;;;;;;;;;5072824;28;20021;-70
2021/08/28 06:16:53;;;;;;;9.40;5.47;;;;;;;;;;5073305;28;20024;-70
2021/08/28 06:19:20;;;;;;;10.00;5.45;;;;;;;;;;5072350;28;20055;-73
2021/08/28 06:21:46;;;;;;;7.85;5.18;;;;;;;;;;5072324;28;20025;-71
2021/08/28 06:24:12;;;;;;;7.80;5.18;;;;;;;;;;5072634;28;20025;-70
2021/08/28 06:26:38;;;;;;;9.48;4.93;;;;;;;;;;5072409;28;20467;-71
2021/08/28 06:29:05;;;;;;;7.65;5.07;;;;;;;;;;5072502;28;20413;-71
2021/08/28 06:31:31;;;;;;;5.75;4.22;;;;;;;;;;5072579;28;20106;-71
2021/08/28 06:33:57;;;;;;;6.75;4.20;;;;;;;;;;5076345;28;20112;-70
2021/08/28 06:36:23;;;;;;;9.55;4.32;;;;;;;;;;5076368;28;20033;-71
2021/08/28 06:38:49;;;;;;;5.65;4.13;;;;;;;;;;5076522;28;20111;-71
2021/08/28 06:41:15;;;;;;;5.68;4.00;;;;;;;;;;5075891;28;20021;-71
2021/08/28 06:43:41;;;;;;;6.45;4.10;;;;;;;;;;5076038;28;20036;-71
2021/08/28 06:46:07;;;;;;;6.07;4.15;;;;;;;;;;5075980;28;20476;-70
2021/08/28 06:48:34;;;;;;;6.53;4.13;;;;;;;;;;5076647;28;20472;-72
2021/08/28 06:51:00;;;;;;;6.72;4.47;;;;;;;;;;5075798;28;20017;-70
2021/08/28 06:53:26;;;;;;;7.07;4.75;;;;;;;;;;5075643;28;20029;-71
2021/08/28 06:55:52;;;;;;;6.53;4.45;;;;;;;;;;5075603;28;20388;-71
2021/08/28 06:58:18;;;;;;;9.20;4.72;;;;;;;;;;5076325;28;20103;-70
2021/08/28 07:00:44;;;;;;;6.97;4.60;;;;;;;;;;5076306;28;20024;-70
2021/08/28 07:03:10;;;;;;;9.90;4.82;;;;;;;;;;5075512;28;20020;-73
2021/08/28 07:05:36;;;;;;;5.68;4.47;;;;;;;;;;5075411;28;20024;-71
2021/08/28 07:08:03;;;;;;;6.30;4.65;;;;;;;;;;5075289;28;20086;-71
2021/08/28 07:10:29;;;;;;;8.48;5.25;;;;;;;;;;5075384;28;20031;-71
2021/08/28 07:12:55;;;;;;;7.53;4.88;;;;;;;;;;5080383;28;20033;-70
2021/08/28 07:15:22;;;;;;;7.15;4.15;;;;;;;;;;5075478;28;20049;-71
2021/08/28 07:17:48;;;;;;;6.22;4.47;;;;;;;;;;5075348;28;20024;-70
2021/08/28 07:20:14;;;;;;;6.25;3.95;;;;;;;;;;5075161;28;20460;-70
2021/08/28 07:22:41;;;;;;;5.50;4.20;;;;;;;;;;5075348;28;20026;-70
2021/08/28 07:25:07;;;;;;;7.82;4.85;;;;;;;;;;5074918;28;20028;-71
2021/08/28 07:27:34;;;;;;;6.97;4.97;;;;;;;;;;5074904;28;20048;-71
2021/08/28 07:30:00;;;;;;;8.07;5.38;;;;;;;;;;5075218;28;20017;-71
2021/08/28 07:32:26;;;;;;;8.50;4.75;;;;;;;;;;5075820;28;20028;-71
2021/08/28 07:34:55;;;;;;;6.63;4.90;;;;;;;;;;5075185;28;20017;-73
2021/08/28 07:37:21;;;;;;;6.38;4.80;;;;;;;;;;5074933;28;20616;-71
2021/08/28 07:39:48;;;;;;;8.00;5.32;;;;;;;;;;5075307;28;20031;-71
2021/08/28 07:42:14;;;;;;;9.73;5.38;;;;;;;;;;5075146;28;20039;-70
2021/08/28 07:44:40;;;;;;;9.95;5.38;;;;;;;;;;5074924;28;20024;-70
2021/08/28 07:47:06;;;;;;;7.85;5.22;;;;;;;;;;5074733;28;20024;-70
2021/08/28 07:49:32;;;;;;;8.60;6.75;;;;;;;;;;5074680;28;20021;-70
2021/08/28 07:51:58;;;;;;;9.02;5.82;;;;;;;;;;5074756;28;20532;-71
2021/08/28 07:54:24;;;;;;;8.65;6.00;;;;;;;;;;5074517;28;20471;-70
2021/08/28 07:56:50;;;;;;;8.30;6.13;;;;;;;;;;5074703;28;20078;-71
2021/08/28 07:59:16;;;;;;;9.80;5.57;;;;;;;;;;5074439;28;20064;-71
2021/08/28 08:01:42;;;;;;;9.20;5.82;;;;;;;;;;5074475;28;20456;-70
2021/08/28 08:04:08;;;;;;;10.38;6.65;;;;;;;;;;5074596;28;20397;-69
2021/08/28 08:06:34;;;;;;;10.77;6.80;;;;;;;;;;5074323;28;20020;-70
2021/08/28 08:09:00;;;;;;;12.95;6.88;;;;;;;;;;5074185;28;20044;-70
2021/08/28 08:11:26;;;;;;;9.82;6.18;;;;;;;;;;5074147;28;20120;-70
2021/08/28 08:13:53;;;;;;;9.50;5.82;;;;;;;;;;5074234;28;20024;-69
2021/08/28 08:16:19;;;;;;;9.60;6.40;;;;;;;;;;5074475;28;20029;-70
2021/08/28 08:18:45;;;;;;;12.10;6.88;;;;;;;;;;5074797;28;20078;-70
2021/08/28 08:21:11;;;;;;;10.80;6.35;;;;;;;;;;5075957;28;20028;-72
2021/08/28 08:23:37;;;;;;;12.95;6.45;;;;;;;;;;5075917;28;20029;-71
2021/08/28 08:26:03;;;;;;;13.20;7.35;;;;;;;;;;5074978;28;20103;-73
2021/08/28 08:28:30;;;;;;;12.13;6.68;;;;;;;;;;5074728;28;20012;-73
2021/08/28 08:30:56;;;;;;;12.93;6.57;;;;;;;;;;5074628;28;20572;-72
2021/08/28 08:33:22;;;;;;;10.75;6.47;;;;;;;;;;5074198;28;20017;-72
2021/08/28 08:35:48;;;;;;;14.07;7.00;;;;;;;;;;5074194;28;20024;-71
2021/08/28 08:38:14;;;;;;;12.63;7.00;;;;;;;;;;5072494;28;20032;-70
2021/08/28 08:40:40;;;;;;;14.00;8.13;;;;;;;;;;5073933;28;20024;-71
2021/08/28 08:43:07;;;;;;;13.43;7.60;;;;;;;;;;5073492;28;20032;-71
2021/08/28 08:45:34;;;;;;;15.20;7.65;;;;;;;;;;5074047;28;20484;-70
2021/08/28 08:48:01;;;;;;;12.23;7.50;;;;;;;;;;5073570;28;20038;-71
2021/08/28 08:50:29;;;;;;;16.02;8.02;;;;;;;;;;5073502;28;20028;-71
2021/08/28 08:52:59;;;;;;;12.20;6.60;;;;;;;;;;5073355;28;20153;-70
2021/08/28 08:55:26;;;;;;;11.23;7.18;;;;;;;;;;5078238;28;20017;-73
2021/08/28 08:57:52;;;;;;;13.18;6.57;;;;;;;;;;5072899;28;20119;-72
2021/08/28 09:00:18;;;;;;;10.30;6.80;;;;;;;;;;5073212;28;20046;-72
2021/08/28 09:02:45;;;;;;;12.25;6.43;;;;;;;;;;5073467;28;20033;-72
2021/08/28 09:05:11;;;;;;;11.38;6.70;;;;;;;;;;5072118;28;20067;-73
2021/08/28 09:07:37;;;;;;;15.38;7.07;;;;;;;;;;5073196;28;20104;-73
2021/08/28 09:10:04;;;;;;;12.15;6.80;;;;;;;;;;5071591;28;20471;-72
2021/08/28 09:12:37;;;;;;;8.95;6.32;;;;;;;;;;5073371;28;20029;-73
2021/08/28 09:15:03;;;;;;;12.27;6.65;;;;;;;;;;5073728;28;20070;-72
2021/08/28 09:17:29;;;;;;;11.32;6.13;;;;;;;;;;5072881;28;20017;-71
2021/08/28 09:19:56;;;;;;;10.00;5.65;;;;;;;;;;5072902;28;20028;-72
2021/08/28 09:22:26;;;;;;;9.63;5.57;;;;;;;;;;5073024;28;20024;-71
2021/08/28 09:24:54;;;;;;;8.57;5.22;;;;;;;;;;5072875;28;20059;-72
2021/08/28 09:27:39;;;;;;;7.65;4.70;;;;;;;;;;5072773;28;20097;-71
2021/08/28 09:30:14;;;;;;;8.10;5.35;;;;;;;;;;5072852;28;20024;-71
2021/08/28 09:32:45;;;;;;;9.00;5.35;;;;;;;;;;5072731;28;20502;-73
2021/08/28 09:35:11;;;;;;;9.95;5.40;;;;;;;;;;5072846;28;20425;-73
2021/08/28 09:37:38;;;;;;;8.10;4.85;;;;;;;;;;5072761;28;20020;-71
2021/08/28 09:40:05;;;;;;;9.00;5.18;;;;;;;;;;5072621;28;20031;-71
2021/08/28 09:42:31;;;;;;;7.03;5.28;;;;;;;;;;5072634;28;20028;-71
2021/08/28 09:44:57;;;;;;;9.20;4.55;;;;;;;;;;5072634;28;20047;-71
2021/08/28 09:47:24;;;;;;;8.50;4.72;;;;;;;;;;5072688;28;20174;-71
2021/08/28 09:49:51;;;;;;;9.90;5.88;;;;;;;;;;5072645;28;20028;-70
2021/08/28 09:52:27;;;;;;;6.60;4.68;;;;;;;;;;5072463;28;20031;-71
2021/08/28 09:54:56;;;;;;;11.05;5.53;;;;;;;;;;5072566;28;20021;-72
2021/08/28 09:57:31;;;;;;;8.25;4.78;;;;;;;;;;5072495;28;20393;-71
2021/08/28 09:59:58;;;;;;;9.20;3.97;;;;;;;;;;5072538;28;20029;-71
2021/08/28 10:02:25;;;;;;;7.15;4.65;;;;;;;;;;5072774;28;20024;-70
2021/08/28 10:04:52;;;;;;;8.30;5.18;;;;;;;;;;5072412;28;20020;-70
2021/08/28 10:07:19;;;;;;;5.35;4.28;;;;;;;;;;5075765;28;20029;-71
2021/08/28 10:09:46;;;;;;;6.38;4.22;;;;;;;;;;5076179;28;20037;-72
2021/08/28 10:12:13;;;;;;;9.02;5.30;;;;;;;;;;5076326;28;20021;-71
2021/08/28 10:14:39;;;;;;;6.85;4.35;;;;;;;;;;5076338;28;20464;-70
2021/08/28 10:17:05;;;;;;;6.47;4.07;;;;;;;;;;5076422;28;20436;-72
2021/08/28 10:19:31;;;;;;;6.25;4.05;;;;;;;;;;5076278;28;20094;-71
2021/08/28 10:21:58;;;;;;;6.63;3.88;;;;;;;;;;5076270;28;20036;-71
2021/08/28 10:24:25;;;;;;;8.15;4.47;;;;;;;;;;5075064;28;20387;-71
2021/08/28 10:26:51;;;;;;;5.60;3.63;;;;;;;;;;5076036;28;20067;-71
2021/08/28 10:29:17;;;;;;;7.40;4.15;;;;;;;;;;5075998;28;20027;-72
2021/08/28 10:31:45;;;;;;;6.28;3.70;;;;;;;;;;5076406;28;20479;-71
2021/08/28 10:34:11;;;;;;;6.25;3.75;;;;;;;;;;5076009;28;20021;-71
2021/08/28 10:36:37;;;;;;;6.65;3.70;;;;;;;;;;5076124;28;20025;-71
2021/08/28 10:39:05;;;;;;;5.78;3.60;;;;;;;;;;5075798;28;20103;-73
2021/08/28 10:41:31;;;;;;;4.93;3.75;;;;;;;;;;5075887;28;20031;-71
2021/08/28 10:43:58;;;;;;;7.93;4.20;;;;;;;;;;5075746;28;20036;-71
2021/08/28 10:46:28;;;;;;;6.35;4.38;;;;;;;;;;5075660;28;20361;-71
2021/08/28 10:48:55;;;;;;;7.85;4.88;;;;;;;;;;5076067;28;20028;-71
2021/08/28 10:51:25;;;;;;;6.55;4.32;;;;;;;;;;5075800;28;20035;-71
2021/08/28 10:53:53;;;;;;;6.10;3.63;;;;;;;;;;5075656;28;20070;-71
2021/08/28 10:56:19;;;;;;;6.57;3.80;;;;;;;;;;5075710;28;20024;-72
2021/08/28 10:59:09;;;;;;;6.22;4.50;;;;;;;;;;5076905;28;20484;-73
2021/08/28 11:02:14;;;;;;;6.53;4.22;;;;;;;;;;5082643;28;20055;-71
2021/08/28 11:04:46;;;;;;;6.82;3.88;;;;;;;;;;5033125;28;20024;-70
2021/08/28 11:07:29;;;;;;;5.72;4.22;;;;;;;;;;5033416;28;20064;-71
2021/08/28 11:10:10;;;;;;;5.63;3.78;;;;;;;;;;5059889;28;20110;-72
2021/08/28 11:12:56;;;;;;;6.65;3.92;;;;;;;;;;5075877;28;20244;-71
2021/08/28 11:15:25;;;;;;;7.22;4.00;;;;;;;;;;5075483;28;20044;-72
2021/08/28 11:17:51;;;;;;;6.80;4.10;;;;;;;;;;5074661;28;20526;-72
2021/08/28 11:20:24;;;;;;;5.22;3.60;;;;;;;;;;5075058;28;20123;-71
2021/08/28 11:22:50;;;;;;;8.40;4.25;;;;;;;;;;5075110;28;20063;-70
2021/08/28 11:25:18;;;;;;;6.70;4.18;;;;;;;;;;5075110;28;20028;-72
2021/08/28 11:27:51;;;;;;;5.88;4.03;;;;;;;;;;5073640;28;20017;-71
2021/08/28 11:30:17;;;;;;;7.40;4.07;;;;;;;;;;5075158;28;20070;-71
2021/08/28 11:33:00;;;;;;;7.63;4.15;;;;;;;;;;5074695;28;20025;-72
2021/08/28 11:35:32;;;;;;;7.10;4.93;;;;;;;;;;5074935;28;20024;-71
2021/08/28 11:38:05;;;;;;;7.35;3.55;;;;;;;;;;5073637;28;20028;-71
2021/08/28 11:40:32;;;;;;;9.82;3.78;;;;;;;;;;5074678;28;20421;-74
2021/08/28 11:42:58;;;;;;;5.63;3.72;;;;;;;;;;5076251;28;20521;-71
2021/08/28 11:45:32;;;;;;;8.70;4.72;;;;;;;;;;5075267;28;20051;-71
2021/08/28 11:47:58;;;;;;;7.38;3.88;;;;;;;;;;5074764;28;20032;-70
2021/08/28 11:50:31;;;;;;;7.30;4.00;;;;;;;;;;5074912;28;20029;-73
2021/08/28 11:52:58;;;;;;;7.38;4.63;;;;;;;;;;5074889;28;20025;-72
2021/08/28 11:55:24;;;;;;;6.13;4.10;;;;;;;;;;5075475;28;20475;-71
2021/08/28 11:58:00;;;;;;;8.25;3.72;;;;;;;;;;5074599;28;20032;-73
2021/08/28 12:00:30;;;;;;;5.60;3.25;;;;;;;;;;5074471;28;20045;-70
2021/08/28 12:02:57;;;;;;;5.80;3.78;;;;;;;;;;5074940;28;20162;-71
2021/08/28 12:05:23;;;;;;;5.75;4.30;;;;;;;;;;5074637;28;20027;-71
2021/08/28 12:07:53;;;;;;;4.35;3.20;;;;;;;;;;5074031;28;20025;-72
2021/08/28 12:10:19;;;;;;;6.28;3.58;;;;;;;;;;5074177;28;20049;-71
2021/08/28 12:12:45;;;;;;;7.25;3.80;;;;;;;;;;5074553;28;20048;-72
2021/08/28 12:15:11;;;;;;;6.85;4.03;;;;;;;;;;5074076;28;20052;-71
2021/08/28 12:17:37;;;;;;;4.43;3.20;;;;;;;;;;5074410;28;20544;-71
2021/08/28 12:20:04;;;;;;;6.50;4.30;;;;;;;;;;5074433;28;20390;-72
2021/08/28 12:22:30;;;;;;;4.57;3.72;;;;;;;;;;5074096;28;20043;-72
2021/08/28 12:24:56;;;;;;;5.20;4.03;;;;;;;;;;5073868;28;20414;-72
2021/08/28 12:27:23;;;;;;;5.57;3.67;;;;;;;;;;5074733;28;20025;-71
2021/08/28 12:29:52;;;;;;;5.70;3.40;;;;;;;;;;5072879;28;20054;-71
2021/08/28 12:32:25;;;;;;;6.22;3.50;;;;;;;;;;5073922;28;20024;-71
2021/08/28 12:34:56;;;;;;;5.43;3.33;;;;;;;;;;5073559;28;20480;-71
2021/08/28 12:37:22;;;;;;;6.75;3.80;;;;;;;;;;5073601;28;20095;-71
2021/08/28 12:39:51;;;;;;;6.07;3.75;;;;;;;;;;5073337;28;20059;-73
2021/08/28 12:42:18;;;;;;;5.32;3.83;;;;;;;;;;5073358;28;20108;-73
2021/08/28 12:44:48;;;;;;;6.35;3.50;;;;;;;;;;5073953;28;20047;-73
2021/08/28 12:47:16;;;;;;;9.05;4.30;;;;;;;;;;5073227;28;20036;-72
2021/08/28 12:49:42;;;;;;;5.40;3.83;;;;;;;;;;5073566;28;20104;-73
2021/08/28 12:52:10;;;;;;;6.25;4.10;;;;;;;;;;5073349;28;20059;-72
2021/08/28 12:54:40;;;;;;;7.43;4.32;;;;;;;;;;5073153;28;20499;-72
2021/08/28 12:57:07;;;;;;;5.22;3.58;;;;;;;;;;5073556;28;20529;-72
2021/08/28 12:59:44;;;;;;;4.90;3.58;;;;;;;;;;5072899;28;20048;-74
2021/08/28 13:02:16;;;;;;;5.40;3.88;;;;;;;;;;5073764;28;20038;-73
2021/08/28 13:04:42;;;;;;;7.20;3.53;;;;;;;;;;5073628;28;20074;-74
2021/08/28 13:07:09;;;;;;;5.10;3.67;;;;;;;;;;5072989;28;20043;-74
2021/08/28 13:09:36;;;;;;;4.63;3.58;;;;;;;;;;5075749;28;20042;-72
2021/08/28 13:12:02;;;;;;;8.15;4.60;;;;;;;;;;5073416;28;20021;-73
2021/08/28 13:14:47;;;;;;;7.30;4.28;;;;;;;;;;5073077;28;20107;-73
2021/08/28 13:17:13;;;;;;;5.45;3.90;;;;;;;;;;5075121;28;20081;-73
2021/08/28 13:19:39;;;;;;;8.55;4.40;;;;;;;;;;5072818;28;20074;-73
2021/08/28 13:22:05;;;;;;;5.10;3.83;;;;;;;;;;5072834;28;20029;-73
2021/08/28 13:24:31;;;;;;;6.38;3.47;;;;;;;;;;5072803;28;20044;-73
2021/08/28 13:27:02;;;;;;;4.63;3.63;;;;;;;;;;5074653;28;20372;-73
2021/08/28 13:29:29;;;;;;;6.85;3.60;;;;;;;;;;5073672;28;20021;-72
2021/08/28 13:32:12;;;;;;;6.13;4.32;;;;;;;;;;5073665;28;20387;-72
2021/08/28 13:34:45;;;;;;;6.32;4.05;;;;;;;;;;5072978;28;20407;-72
2021/08/28 13:37:11;;;;;;;4.83;3.67;;;;;;;;;;5074887;28;20032;-71
2021/08/28 13:39:38;;;;;;;5.60;3.53;;;;;;;;;;5073457;28;20265;-72
2021/08/28 13:42:04;;;;;;;7.47;4.00;;;;;;;;;;5072580;28;20490;-72
2021/08/28 13:44:31;;;;;;;6.20;4.55;;;;;;;;;;5072483;28;20033;-71
2021/08/28 13:47:00;;;;;;;4.63;3.95;;;;;;;;;;5075136;28;20021;-73
2021/08/28 13:49:26;;;;;;;4.47;3.45;;;;;;;;;;5074028;28;20082;-73
2021/08/28 13:51:52;;;;;;;4.88;4.30;;;;;;;;;;5071120;28;20021;-72
2021/08/28 13:54:18;;;;;;;5.93;4.00;;;;;;;;;;5072454;28;20048;-74
2021/08/28 13:56:45;;;;;;;4.07;3.60;;;;;;;;;;5072633;28;20025;-74
2021/08/28 13:59:13;;;;;;;4.15;3.50;;;;;;;;;;5072338;28;20020;-73
2021/08/28 14:01:40;;;;;;;5.43;4.03;;;;;;;;;;5072360;28;20020;-74
2021/08/28 14:04:06;;;;;;;4.38;3.22;;;;;;;;;;5072365;28;20021;-73
2021/08/28 14:06:36;;;;;;;7.13;3.55;;;;;;;;;;5072350;28;20020;-72
2021/08/28 14:09:03;;;;;;;7.45;4.03;;;;;;;;;;5072614;28;20047;-73
2021/08/28 14:11:29;;;;;;;9.20;4.35;;;;;;;;;;5071731;28;20020;-73
2021/08/28 14:13:55;;;;;;;7.50;4.15;;;;;;;;;;5072223;28;20029;-73
2021/08/28 14:16:21;;;;;;;9.32;3.45;;;;;;;;;;5072202;28;20446;-74
2021/08/28 14:18:47;;;;;;;6.25;3.80;;;;;;;;;;5072184;28;20399;-75
2021/08/28 14:21:13;;;;;;;7.55;3.80;;;;;;;;;;5072192;28;20070;-73
2021/08/28 14:23:39;;;;;;;4.35;3.55;;;;;;;;;;5072158;28;20024;-74
2021/08/28 14:26:05;;;;;;;6.65;4.20;;;;;;;;;;5072501;28;20016;-74
2021/08/28 14:28:32;;;;;;;4.18;3.45;;;;;;;;;;5072805;28;20479;-73
2021/08/28 14:30:58;;;;;;;5.57;4.00;;;;;;;;;;5072188;28;20494;-73
2021/08/28 14:33:24;;;;;;;5.72;3.30;;;;;;;;;;5071993;28;20039;-72
2021/08/28 14:35:51;;;;;;;5.50;3.72;;;;;;;;;;5072063;28;20017;-72
2021/08/28 14:38:17;;;;;;;4.95;3.63;;;;;;;;;;5073163;28;20514;-72